createdAt,value
2022-11-16T00:00:10.611Z,9.90
2022-11-16T00:02:40.120Z,9.90
2022-11-16T00:05:08.917Z,9.90
2022-11-16T00:07:37.102Z,9.90
2022-11-16T00:10:05.936Z,9.90
2022-11-16T00:12:34.324Z,9.90
2022-11-16T00:15:02.253Z,9.90
2022-11-16T00:17:30.290Z,9.90
2022-11-16T00:20:00.655Z,9.80
2022-11-16T00:22:28.659Z,9.70
2022-11-16T00:24:56.666Z,9.70
2022-11-16T00:27:24.842Z,9.70
2022-11-16T00:29:53.168Z,9.70
2022-11-16T00:32:21.253Z,9.70
2022-11-16T00:34:49.320Z,9.70
2022-11-16T00:37:18.742Z,9.70
2022-11-16T00:39:46.778Z,9.80
2022-11-16T00:42:14.754Z,9.80
2022-11-16T00:44:43.056Z,9.80
2022-11-16T00:47:11.080Z,9.70
2022-11-16T00:49:39.469Z,9.70
2022-11-16T00:52:07.646Z,9.70
2022-11-16T00:54:36.947Z,9.70
2022-11-16T00:57:05.031Z,9.70
2022-11-16T00:59:33.196Z,9.70
2022-11-16T01:02:01.066Z,9.70
2022-11-16T01:04:29.560Z,9.70
2022-11-16T01:06:59.974Z,9.80
2022-11-16T01:09:27.915Z,9.70
2022-11-16T01:12:12.772Z,9.80
2022-11-16T01:14:45.392Z,9.80
2022-11-16T01:17:14.245Z,9.80
2022-11-16T01:19:42.666Z,9.90
2022-11-16T01:22:10.643Z,9.80
2022-11-16T01:24:38.558Z,9.70
2022-11-16T01:27:08.026Z,9.50
2022-11-16T01:29:36.069Z,9.40
2022-11-16T01:32:04.701Z,9.40
2022-11-16T01:34:32.807Z,9.30
2022-11-16T01:37:00.862Z,9.30
2022-11-16T01:39:28.979Z,9.20
2022-11-16T01:41:57.022Z,9.30
2022-11-16T01:44:59.496Z,9.30
2022-11-16T01:47:27.492Z,9.20
2022-11-16T01:50:00.756Z,9.30
2022-11-16T01:52:38.057Z,9.30
2022-11-16T01:55:07.175Z,9.30
2022-11-16T01:57:39.013Z,9.20
2022-11-16T02:00:11.502Z,9.30
2022-11-16T02:02:39.798Z,9.20
2022-11-16T02:05:08.887Z,9.20
2022-11-16T02:08:07.182Z,9.10
2022-11-16T02:10:49.067Z,9.10
2022-11-16T02:13:33.657Z,9.10
2022-11-16T02:16:11.040Z,9.10
2022-11-16T02:18:50.124Z,9.10
2022-11-16T02:21:30.332Z,9.10
2022-11-16T02:24:20.991Z,9.20
2022-11-16T02:27:34.877Z,9.10
2022-11-16T02:30:05.916Z,9.10
2022-11-16T02:32:39.056Z,9.10
2022-11-16T02:35:14.074Z,9.10
2022-11-16T02:37:46.659Z,9.10
2022-11-16T02:40:17.626Z,9.10
2022-11-16T02:42:51.097Z,9.10
2022-11-16T02:45:24.395Z,9.10
2022-11-16T02:47:54.826Z,9.10
2022-11-16T02:50:25.757Z,9.10
2022-11-16T02:52:53.689Z,9.10
2022-11-16T02:55:21.918Z,9.10
2022-11-16T02:57:52.808Z,9.10
2022-11-16T03:00:25.529Z,9.10
2022-11-16T03:03:12.301Z,9.10
2022-11-16T03:05:45.535Z,9.10
2022-11-16T03:08:22.371Z,9.10
2022-11-16T03:11:12.024Z,9.10
2022-11-16T03:13:41.454Z,9.10
2022-11-16T03:16:15.158Z,9.10
2022-11-16T03:18:45.403Z,9.10
2022-11-16T03:21:20.242Z,9.10
2022-11-16T03:23:48.456Z,9.10
2022-11-16T03:26:21.637Z,9.10
2022-11-16T03:28:56.350Z,9.10
2022-11-16T03:31:30.669Z,9.20
2022-11-16T03:34:02.103Z,9.10
2022-11-16T03:36:33.592Z,9.20
2022-11-16T03:39:05.460Z,9.20
2022-11-16T03:41:35.660Z,9.20
2022-11-16T03:44:04.974Z,9.20
2022-11-16T03:46:34.487Z,9.10
2022-11-16T03:49:02.817Z,9.10
2022-11-16T03:51:30.831Z,9.10
2022-11-16T03:53:58.850Z,9.10
2022-11-16T03:56:26.839Z,9.10
2022-11-16T03:58:54.866Z,9.00
2022-11-16T04:01:23.170Z,9.10
2022-11-16T04:03:52.513Z,9.10
2022-11-16T04:06:37.991Z,9.00
2022-11-16T04:09:25.665Z,9.10
2022-11-16T04:12:11.613Z,9.20
2022-11-16T04:14:57.580Z,9.30
2022-11-16T04:17:44.708Z,9.40
2022-11-16T04:20:33.717Z,9.40
2022-11-16T04:23:22.583Z,9.30
2022-11-16T04:25:53.449Z,9.30
2022-11-16T04:28:24.200Z,9.40
2022-11-16T04:31:11.663Z,9.50
2022-11-16T04:33:57.441Z,9.40
2022-11-16T04:36:44.754Z,9.50
2022-11-16T04:39:12.818Z,9.50
2022-11-16T04:41:58.132Z,9.50
2022-11-16T04:44:46.219Z,9.60
2022-11-16T04:47:13.212Z,9.60
2022-11-16T04:49:41.370Z,9.70
2022-11-16T04:52:10.779Z,9.60
2022-11-16T04:54:38.852Z,9.60
2022-11-16T04:57:07.025Z,9.60
2022-11-16T04:59:35.066Z,9.60
2022-11-16T05:02:12.390Z,9.60
2022-11-16T05:04:43.311Z,9.60
2022-11-16T05:07:14.925Z,9.60
2022-11-16T05:09:44.804Z,9.60
2022-11-16T05:12:14.921Z,9.60
2022-11-16T05:14:46.156Z,9.70
2022-11-16T05:17:14.850Z,9.70
2022-11-16T05:20:00.550Z,9.70
2022-11-16T05:22:30.319Z,9.70
2022-11-16T05:24:58.540Z,9.70
2022-11-16T05:27:28.248Z,9.70
2022-11-16T05:29:56.556Z,9.70
2022-11-16T05:32:25.897Z,9.70
2022-11-16T05:34:54.263Z,9.70
2022-11-16T05:37:26.164Z,9.70
2022-11-16T05:39:57.063Z,9.70
2022-11-16T05:42:25.587Z,9.80
2022-11-16T05:44:53.696Z,9.70
2022-11-16T05:47:21.893Z,9.80
2022-11-16T05:49:49.902Z,9.80
2022-11-16T05:52:17.960Z,9.80
2022-11-16T05:54:46.530Z,9.80
2022-11-16T05:57:15.961Z,9.80
2022-11-16T05:59:43.930Z,9.80
2022-11-16T06:02:11.990Z,9.80
2022-11-16T06:04:39.853Z,9.80
2022-11-16T06:07:07.864Z,9.80
2022-11-16T06:09:36.117Z,9.80
2022-11-16T06:12:04.761Z,9.80
2022-11-16T06:14:34.103Z,9.80
2022-11-16T06:17:02.184Z,9.90
2022-11-16T06:19:32.557Z,9.90
2022-11-16T06:22:00.749Z,9.90
2022-11-16T06:24:28.915Z,9.90
2022-11-16T06:26:56.921Z,10.00
2022-11-16T06:29:24.875Z,9.90
2022-11-16T06:31:56.746Z,9.90
2022-11-16T06:34:25.121Z,9.90
2022-11-16T06:36:53.314Z,9.90
2022-11-16T06:39:24.210Z,9.90
2022-11-16T06:41:54.660Z,10.00
2022-11-16T06:44:28.479Z,10.00
2022-11-16T06:46:57.988Z,10.00
2022-11-16T06:49:26.164Z,10.00
2022-11-16T06:51:54.332Z,10.10
2022-11-16T06:54:22.395Z,10.10
2022-11-16T06:56:50.381Z,10.10
2022-11-16T06:59:18.611Z,10.10
2022-11-16T07:01:46.744Z,10.10
2022-11-16T07:04:16.320Z,10.10
2022-11-16T07:06:47.647Z,10.10
2022-11-16T07:09:16.360Z,10.10
2022-11-16T07:11:44.770Z,10.10
2022-11-16T07:14:13.360Z,10.10
2022-11-16T07:16:41.505Z,10.10
2022-11-16T07:19:10.299Z,10.10
2022-11-16T07:21:40.065Z,10.10
2022-11-16T07:24:08.555Z,10.10
2022-11-16T07:26:36.718Z,10.10
2022-11-16T07:29:04.921Z,10.10
2022-11-16T07:31:35.058Z,10.10
2022-11-16T07:34:03.118Z,10.10
2022-11-16T07:36:31.896Z,10.10
2022-11-16T07:39:02.079Z,10.10
2022-11-16T07:41:30.000Z,10.10
2022-11-16T07:43:57.975Z,10.10
2022-11-16T07:49:16.238Z,10.20
2022-11-16T07:51:44.251Z,10.20
2022-11-16T07:54:14.768Z,10.20
2022-11-16T07:56:45.439Z,10.20
2022-11-16T07:59:15.224Z,10.30
2022-11-16T08:01:43.348Z,10.30
2022-11-16T08:04:11.430Z,10.30
2022-11-16T08:06:39.713Z,10.30
2022-11-16T08:09:07.680Z,10.40
2022-11-16T08:11:37.160Z,10.40
2022-11-16T08:14:05.544Z,10.40
2022-11-16T08:16:34.088Z,10.50
2022-11-16T08:19:05.348Z,10.50
2022-11-16T08:21:33.732Z,10.60
2022-11-16T08:24:01.753Z,10.50
2022-11-16T08:26:30.123Z,10.40
2022-11-16T08:28:59.693Z,10.40
2022-11-16T08:31:29.289Z,10.40
2022-11-16T08:33:57.668Z,10.40
2022-11-16T08:36:28.761Z,10.40
2022-11-16T08:38:56.853Z,10.30
2022-11-16T08:41:25.228Z,10.30
2022-11-16T08:43:54.161Z,10.40
2022-11-16T08:46:23.917Z,10.60
2022-11-16T08:48:56.903Z,10.80
2022-11-16T08:51:26.016Z,11.00
2022-11-16T08:53:57.324Z,11.20
2022-11-16T08:56:27.358Z,11.30
2022-11-16T08:58:59.009Z,11.40
2022-11-16T09:01:30.930Z,11.50
2022-11-16T09:03:59.354Z,11.50
2022-11-16T09:06:28.641Z,11.50
2022-11-16T09:08:57.250Z,11.70
2022-11-16T09:11:27.370Z,11.70
2022-11-16T09:13:56.286Z,11.60
2022-11-16T09:16:28.162Z,11.50
2022-11-16T09:18:57.469Z,11.50
2022-11-16T09:21:27.000Z,11.50
2022-11-16T09:23:58.043Z,11.50
2022-11-16T09:26:29.050Z,11.50
2022-11-16T09:28:59.333Z,11.60
2022-11-16T09:31:28.322Z,11.70
2022-11-16T09:33:59.466Z,11.80
2022-11-16T09:36:28.609Z,11.90
2022-11-16T09:42:00.835Z,12.20
2022-11-16T09:44:53.595Z,12.40
2022-11-16T09:47:24.120Z,12.50
2022-11-16T09:50:01.675Z,12.20
2022-11-16T09:52:34.702Z,11.80
2022-11-16T09:55:17.536Z,11.60
2022-11-16T09:57:47.159Z,11.60
2022-11-16T10:00:19.877Z,11.50
2022-11-16T10:02:57.641Z,11.50
2022-11-16T10:05:32.287Z,11.60
2022-11-16T10:08:07.688Z,11.60
2022-11-16T10:10:38.921Z,11.40
2022-11-16T10:13:19.755Z,11.50
2022-11-16T10:15:57.046Z,11.70
2022-11-16T10:18:45.880Z,11.80
2022-11-16T10:21:34.975Z,11.90
2022-11-16T10:24:39.736Z,12.00
2022-11-16T10:27:25.876Z,12.10
2022-11-16T10:30:03.357Z,12.40
2022-11-16T10:32:33.965Z,12.60
2022-11-16T10:35:05.626Z,12.40
2022-11-16T10:37:39.436Z,12.50
2022-11-16T10:40:19.297Z,12.50
2022-11-16T10:42:52.520Z,12.60
2022-11-16T10:45:25.155Z,12.80
2022-11-16T10:47:59.401Z,12.90
2022-11-16T10:50:36.302Z,12.90
2022-11-16T10:53:06.060Z,12.80
2022-11-16T10:55:34.023Z,12.50
2022-11-16T10:58:04.407Z,12.60
2022-11-16T11:00:41.104Z,12.50
2022-11-16T11:03:10.767Z,12.80
2022-11-16T11:05:47.145Z,13.10
2022-11-16T11:08:27.265Z,13.10
2022-11-16T11:11:24.053Z,13.20
2022-11-16T11:14:09.818Z,13.50
2022-11-16T11:16:41.682Z,13.60
2022-11-16T11:19:20.234Z,13.70
2022-11-16T11:21:49.160Z,13.70
2022-11-16T11:27:07.757Z,12.90
2022-11-16T11:29:38.794Z,12.40
2022-11-16T11:32:09.158Z,12.20
2022-11-16T11:34:42.833Z,12.00
2022-11-16T11:37:17.098Z,11.90
2022-11-16T11:39:46.602Z,12.00
2022-11-16T11:42:23.833Z,11.90
2022-11-16T11:44:58.741Z,12.00
2022-11-16T11:50:33.968Z,12.10
2022-11-16T11:53:07.253Z,12.10
2022-11-16T11:55:36.687Z,12.10
2022-11-16T11:58:07.240Z,12.10
2022-11-16T12:00:51.192Z,12.40
2022-11-16T12:03:40.350Z,12.70
2022-11-16T12:06:18.029Z,12.70
2022-11-16T12:09:21.668Z,12.70
2022-11-16T12:12:04.294Z,12.70
2022-11-16T12:14:59.478Z,12.50
2022-11-16T12:17:34.444Z,12.80
2022-11-16T12:20:23.277Z,12.80
2022-11-16T12:23:14.195Z,12.70
2022-11-16T12:25:50.971Z,12.60
2022-11-16T12:28:36.218Z,12.60
2022-11-16T12:31:21.721Z,12.60
2022-11-16T12:33:55.324Z,12.70
2022-11-16T12:36:34.361Z,12.90
2022-11-16T12:39:15.301Z,12.70
2022-11-16T12:42:10.144Z,12.60
2022-11-16T12:44:54.373Z,12.70
2022-11-16T12:47:32.734Z,12.50
2022-11-16T12:50:09.702Z,12.60
2022-11-16T12:52:56.746Z,12.60
2022-11-16T12:55:32.408Z,12.60
2022-11-16T12:58:14.479Z,12.60
2022-11-16T13:00:57.057Z,12.50
2022-11-16T13:03:33.852Z,12.50
2022-11-16T13:06:05.184Z,12.60
2022-11-16T13:08:51.364Z,12.50
2022-11-16T13:11:23.635Z,12.40
2022-11-16T13:13:57.107Z,12.30
2022-11-16T13:16:27.441Z,12.20
2022-11-16T13:18:56.465Z,12.30
2022-11-16T13:21:32.813Z,12.20
2022-11-16T13:24:17.750Z,12.20
2022-11-16T13:26:55.489Z,12.20
2022-11-16T13:29:30.523Z,12.10
2022-11-16T13:32:06.721Z,12.00
2022-11-16T13:34:38.383Z,12.00
2022-11-16T13:37:41.410Z,11.90
2022-11-16T13:40:26.212Z,12.00
2022-11-16T13:43:25.125Z,12.00
2022-11-16T13:45:58.465Z,12.20
2022-11-16T13:48:33.486Z,12.30
2022-11-16T13:51:04.474Z,12.30
2022-11-16T13:54:37.726Z,12.50
2022-11-16T13:56:28.639Z,12.50
2022-11-16T13:58:58.699Z,12.50
2022-11-16T14:01:35.823Z,12.40
2022-11-16T14:04:35.955Z,12.50
2022-11-16T14:07:04.370Z,12.30
2022-11-16T14:09:47.266Z,12.20
2022-11-16T14:12:44.951Z,12.10
2022-11-16T14:15:16.356Z,12.30
2022-11-16T14:17:51.698Z,12.30
2022-11-16T14:20:41.035Z,12.30
2022-11-16T14:23:36.753Z,12.30
2022-11-16T14:26:20.430Z,12.30
2022-11-16T14:29:11.189Z,12.30
2022-11-16T14:31:51.455Z,12.20
2022-11-16T14:34:22.813Z,12.10
2022-11-16T14:36:52.945Z,12.10
2022-11-16T14:39:34.386Z,12.20
2022-11-16T14:42:05.569Z,12.10
2022-11-16T14:44:39.083Z,12.00
2022-11-16T14:47:16.675Z,11.90
2022-11-16T14:49:46.297Z,11.80
2022-11-16T14:52:17.618Z,11.80
2022-11-16T14:54:51.342Z,11.70
2022-11-16T14:57:22.878Z,11.70
2022-11-16T15:00:08.752Z,11.70
2022-11-16T15:02:37.672Z,11.60
2022-11-16T15:05:06.422Z,11.60
2022-11-16T15:07:36.233Z,11.50
2022-11-16T15:10:05.026Z,11.50
2022-11-16T15:12:44.592Z,11.30
2022-11-16T15:15:17.552Z,11.30
2022-11-16T15:17:47.664Z,11.20
2022-11-16T15:20:20.783Z,11.10
2022-11-16T15:22:53.615Z,11.10
2022-11-16T15:25:28.360Z,11.00
2022-11-16T15:27:57.485Z,10.90
2022-11-16T15:30:27.806Z,11.00
2022-11-16T15:32:56.390Z,11.00
2022-11-16T15:35:26.310Z,10.80
2022-11-16T15:38:06.262Z,10.80
2022-11-16T15:40:35.728Z,10.70
2022-11-16T15:43:06.651Z,10.60
2022-11-16T15:45:35.389Z,10.50
2022-11-16T15:48:04.934Z,10.50
2022-11-16T15:50:33.294Z,10.50
2022-11-16T15:53:01.449Z,10.40
2022-11-16T15:55:37.652Z,10.30
2022-11-16T15:58:15.614Z,10.30
2022-11-16T16:00:48.164Z,10.20
2022-11-16T16:03:24.018Z,10.20
2022-11-16T16:05:53.229Z,10.30
2022-11-16T16:08:31.067Z,10.30
2022-11-16T16:11:02.469Z,10.20
2022-11-16T16:13:33.927Z,10.20
2022-11-16T16:16:28.243Z,10.20
2022-11-16T16:19:04.968Z,10.30
2022-11-16T16:21:45.789Z,10.30
2022-11-16T16:24:36.534Z,10.20
2022-11-16T16:27:14.168Z,10.20
2022-11-16T16:29:42.362Z,10.10
2022-11-16T16:32:24.342Z,10.10
2022-11-16T16:34:53.249Z,10.10
2022-11-16T16:37:21.531Z,10.10
2022-11-16T16:39:53.409Z,10.20
2022-11-16T16:42:22.879Z,10.30
2022-11-16T16:44:51.611Z,10.40
2022-11-16T16:47:21.225Z,10.50
2022-11-16T16:49:49.465Z,10.50
2022-11-16T16:52:18.179Z,10.40
2022-11-16T16:54:46.310Z,10.40
2022-11-16T16:57:15.860Z,10.40
2022-11-16T16:59:48.139Z,10.40
2022-11-16T17:02:17.586Z,10.50
2022-11-16T17:04:46.947Z,10.40
2022-11-16T17:07:15.348Z,10.40
2022-11-16T17:09:43.764Z,10.30
2022-11-16T17:12:12.298Z,10.20
2022-11-16T17:14:40.403Z,10.30
2022-11-16T17:17:11.346Z,10.40
2022-11-16T17:19:39.633Z,10.40
2022-11-16T17:22:07.927Z,10.30
2022-11-16T17:24:36.116Z,10.30
2022-11-16T17:27:04.161Z,10.30
2022-11-16T17:29:32.227Z,10.40
2022-11-16T17:32:00.505Z,10.40
2022-11-16T17:34:30.023Z,10.40
2022-11-16T17:36:57.986Z,10.40
2022-11-16T17:39:26.237Z,10.40
2022-11-16T17:41:54.743Z,10.40
2022-11-16T17:44:22.818Z,10.40
2022-11-16T17:46:51.108Z,10.30
2022-11-16T17:49:19.055Z,10.20
2022-11-16T17:51:48.689Z,10.10
2022-11-16T17:54:16.850Z,10.10
2022-11-16T17:56:45.240Z,10.10
2022-11-16T17:59:13.513Z,10.20
2022-11-16T18:01:41.708Z,10.10
2022-11-16T18:04:10.059Z,10.20
2022-11-16T18:06:38.107Z,10.20
2022-11-16T18:09:07.712Z,10.10
2022-11-16T18:11:35.925Z,10.10
2022-11-16T18:14:05.643Z,10.00
2022-11-16T18:16:35.029Z,9.90
2022-11-16T18:19:05.293Z,10.00
2022-11-16T18:21:39.317Z,9.90
2022-11-16T18:24:09.849Z,9.90
2022-11-16T18:26:38.486Z,9.90
2022-11-16T18:29:07.078Z,10.00
2022-11-16T18:31:35.543Z,10.00
2022-11-16T18:34:03.894Z,10.10
2022-11-16T18:36:31.881Z,10.10
2022-11-16T18:39:00.221Z,10.10
2022-11-16T18:41:31.106Z,10.10
2022-11-16T18:44:00.815Z,10.10
2022-11-16T18:46:30.349Z,10.10
2022-11-16T18:48:58.926Z,10.10
2022-11-16T18:51:28.467Z,10.10
2022-11-16T18:53:57.650Z,10.10
2022-11-16T18:56:27.570Z,10.10
2022-11-16T18:58:57.395Z,10.10
2022-11-16T19:01:27.673Z,10.10
2022-11-16T19:04:03.332Z,10.10
2022-11-16T19:06:33.496Z,10.10
2022-11-16T19:09:05.708Z,10.10
2022-11-16T19:11:33.900Z,10.00
2022-11-16T19:14:05.035Z,10.00
2022-11-16T19:16:33.407Z,10.00
2022-11-16T19:19:04.998Z,10.00
2022-11-16T19:21:40.173Z,10.00
2022-11-16T19:24:11.046Z,10.00
2022-11-16T19:26:39.735Z,10.00
2022-11-16T19:29:17.782Z,10.00
2022-11-16T19:31:46.632Z,10.10
2022-11-16T19:34:16.278Z,10.20
2022-11-16T19:36:59.397Z,10.10
2022-11-16T19:39:30.753Z,10.00
2022-11-16T19:42:06.536Z,9.90
2022-11-16T19:44:44.085Z,9.80
2022-11-16T19:47:13.073Z,9.80
2022-11-16T19:49:50.374Z,9.90
2022-11-16T19:52:20.806Z,9.90
2022-11-16T19:55:10.556Z,10.10
2022-11-16T19:57:38.757Z,10.10
2022-11-16T20:00:11.857Z,10.10
2022-11-16T20:02:44.824Z,10.00
2022-11-16T20:06:04.406Z,10.00
2022-11-16T20:08:11.352Z,10.10
2022-11-16T20:10:49.146Z,10.00
2022-11-16T20:13:22.486Z,9.90
2022-11-16T20:16:02.409Z,9.90
2022-11-16T20:18:43.902Z,9.80
2022-11-16T20:21:35.022Z,9.80
2022-11-16T20:24:12.218Z,9.80
2022-11-16T20:26:47.546Z,9.80
2022-11-16T20:29:24.423Z,9.70
2022-11-16T20:31:54.642Z,9.60
2022-11-16T20:34:23.133Z,9.60
2022-11-16T20:36:52.101Z,9.70
2022-11-16T20:39:22.003Z,9.70
2022-11-16T20:41:50.815Z,9.60
2022-11-16T20:44:23.392Z,9.70
2022-11-16T20:46:54.606Z,9.70
2022-11-16T20:49:23.233Z,9.50
2022-11-16T20:51:51.911Z,9.50
2022-11-16T20:54:19.909Z,9.50
2022-11-16T20:56:54.844Z,9.50
2022-11-16T20:59:29.745Z,9.50
2022-11-16T21:02:15.837Z,9.50
2022-11-16T21:04:46.259Z,9.60
2022-11-16T21:07:14.616Z,9.60
2022-11-16T21:09:56.642Z,9.60
2022-11-16T21:12:47.542Z,9.50
2022-11-16T21:15:15.754Z,9.40
2022-11-16T21:17:45.231Z,9.40
2022-11-16T21:20:26.877Z,9.40
2022-11-16T21:22:55.875Z,9.50
2022-11-16T21:25:23.884Z,9.40
2022-11-16T21:27:51.843Z,9.30
2022-11-16T21:30:20.232Z,9.30
2022-11-16T21:32:49.754Z,9.30
2022-11-16T21:35:18.263Z,9.30
2022-11-16T21:37:46.357Z,9.30
2022-11-16T21:40:14.573Z,9.30
2022-11-16T21:42:42.558Z,9.30
2022-11-16T21:45:11.832Z,9.30
2022-11-16T21:47:39.923Z,9.30
2022-11-16T21:50:31.177Z,9.20
2022-11-16T21:53:00.012Z,9.30
2022-11-16T21:55:28.090Z,9.30
2022-11-16T21:57:56.610Z,9.30
2022-11-16T22:00:24.897Z,9.40
2022-11-16T22:02:53.340Z,9.50
2022-11-16T22:05:40.133Z,9.50
2022-11-16T22:08:11.464Z,9.30
2022-11-16T22:10:39.465Z,9.20
2022-11-16T22:13:07.505Z,9.10
2022-11-16T22:15:35.511Z,9.00
2022-11-16T22:18:05.526Z,9.10
2022-11-16T22:20:35.060Z,9.10
2022-11-16T22:23:08.434Z,9.00
2022-11-16T22:25:38.028Z,8.80
2022-11-16T22:28:24.439Z,8.70
2022-11-16T22:31:00.511Z,8.60
2022-11-16T22:33:28.737Z,8.60
2022-11-16T22:35:58.336Z,8.50
2022-11-16T22:38:26.879Z,8.50
2022-11-16T22:40:56.372Z,8.50
2022-11-16T22:43:26.896Z,8.60
2022-11-16T22:45:59.182Z,8.80
2022-11-16T22:48:31.833Z,9.00
2022-11-16T22:51:06.501Z,9.10
2022-11-16T22:53:35.067Z,9.00
2022-11-16T22:56:07.916Z,9.10
2022-11-16T22:58:36.222Z,9.10
2022-11-16T23:01:04.628Z,9.00
2022-11-16T23:03:33.031Z,9.00
2022-11-16T23:06:01.362Z,9.00
2022-11-16T23:08:31.272Z,9.10
2022-11-16T23:11:18.270Z,9.10
2022-11-16T23:14:04.290Z,9.10
2022-11-16T23:16:32.671Z,9.20
2022-11-16T23:19:03.695Z,9.20
2022-11-16T23:21:49.255Z,9.20
2022-11-16T23:24:36.294Z,9.30
2022-11-16T23:27:28.096Z,9.30
2022-11-16T23:29:56.388Z,9.30
2022-11-16T23:32:27.900Z,9.50
2022-11-16T23:34:55.936Z,9.50
2022-11-16T23:37:24.024Z,9.50
2022-11-16T23:39:53.595Z,9.60
2022-11-16T23:42:39.189Z,9.70
2022-11-16T23:45:08.021Z,9.70
2022-11-16T23:47:36.094Z,9.70
2022-11-16T23:50:04.342Z,9.80
2022-11-16T23:52:32.259Z,9.70
2022-11-16T23:55:01.677Z,9.70
2022-11-16T23:57:29.714Z,9.70
2022-11-16T23:59:57.743Z,9.70
